Time;durP1;ratioP1;P1;durP2;ratioP2;P2;SDS_P1;SDS_P2;PMS_P1;PMS_P2;Temp;Humidity;BMP_temperature;BMP_pressure;BME280_temperature;BME280_humidity;BME280_pressure;Samples;Min_cycle;Max_cycle;Signal;HPM_P1;HPM_P2
2022/05/15 00:02:56;;;;;;;6.30;3.80;;;;;;100589.61;;;;106629;1287;28354;-30
2022/05/15 00:05:23;;;;;;;5.60;3.40;;;;;;100590.14;;;;106688;1288;28383;-31
2022/05/15 00:07:50;;;;;;;7.00;3.60;;;;;;100590.95;;;;106481;1288;28465;-29
2022/05/15 00:10:16;;;;;;;6.50;3.60;;;;;;100588.27;;;;106706;1287;28246;-30
2022/05/15 00:12:44;;;;;;;6.30;3.60;;;;;;100585.52;;;;106690;1287;28459;-30
2022/05/15 00:15:11;;;;;;;5.90;3.30;;;;;;100589.16;;;;106655;1288;27239;-30
2022/05/15 00:17:38;;;;;;;6.50;3.60;;;;;;100593.33;;;;106613;1287;28420;-30
2022/05/15 00:20:05;;;;;;;7.20;3.50;;;;;;100592.17;;;;106714;1285;28448;-28
2022/05/15 00:22:35;;;;;;;6.70;3.50;;;;;;100595.69;;;;106731;1285;30652;-30
2022/05/15 00:25:06;;;;;;;6.00;3.80;;;;;;100592.26;;;;106733;1285;27689;-30
2022/05/15 00:27:32;;;;;;;7.30;3.80;;;;;;100594.75;;;;106738;1285;28609;-30
2022/05/15 00:29:59;;;;;;;6.40;3.50;;;;;;100593.73;;;;106709;1285;29233;-30
2022/05/15 00:32:26;;;;;;;7.30;3.50;;;;;;100593.60;;;;106727;1285;28661;-30
2022/05/15 00:34:53;;;;;;;6.70;3.30;;;;;;100597.34;;;;106746;1285;27416;-31
2022/05/15 00:37:20;;;;;;;6.20;3.30;;;;;;100599.27;;;;106721;1285;29516;-31
2022/05/15 00:39:47;;;;;;;7.10;3.20;;;;;;100598.91;;;;106740;1285;25796;-31
2022/05/15 00:42:13;;;;;;;5.80;3.80;;;;;;100603.38;;;;106737;1285;28378;-31
2022/05/15 00:44:40;;;;;;;5.80;3.30;;;;;;100606.16;;;;106724;1285;28373;-31
2022/05/15 00:47:07;;;;;;;7.00;3.60;;;;;;100607.74;;;;106746;1285;30590;-30
2022/05/15 00:49:34;;;;;;;7.20;3.50;;;;;;100607.55;;;;106701;1285;26020;-31
2022/05/15 00:52:12;;;;;;;6.20;3.40;;;;;;100606.73;;;;106619;1285;26914;-30
2022/05/15 00:55:46;;;;;;;6.00;3.90;;;;;;100605.19;;;;106673;1286;30507;-31
2022/05/15 00:58:20;;;;;;;6.70;3.50;;;;;;100602.48;;;;106098;1291;28465;-31
2022/05/15 01:00:47;;;;;;;5.90;3.30;;;;;;100598.92;;;;106155;1291;25966;-31
2022/05/15 01:03:18;;;;;;;5.20;2.90;;;;;;100602.62;;;;106404;1285;26144;-31
2022/05/15 01:05:51;;;;;;;6.00;3.50;;;;;;100605.94;;;;106773;1285;26015;-31
2022/05/15 01:08:58;;;;;;;5.50;3.20;;;;;;100603.02;;;;106769;1285;30739;-31
2022/05/15 01:11:24;;;;;;;6.40;3.10;;;;;;100603.30;;;;106606;1285;30578;-31
2022/05/15 01:13:52;;;;;;;6.50;3.10;;;;;;100603.63;;;;106699;1285;30155;-31
2022/05/15 01:16:24;;;;;;;6.40;3.50;;;;;;100603.69;;;;106435;1285;27603;-31
2022/05/15 01:18:56;;;;;;;6.50;3.10;;;;;;100604.55;;;;106744;1285;29450;-31
2022/05/15 01:21:33;;;;;;;7.00;3.10;;;;;;100602.10;;;;106744;1285;28031;-31
2022/05/15 01:24:07;;;;;;;6.50;3.40;;;;;;100601.88;;;;106726;1285;26099;-31
2022/05/15 01:26:36;;;;;;;7.20;3.40;;;;;;100602.13;;;;106628;1285;28429;-31
2022/05/15 01:29:06;;;;;;;5.60;3.30;;;;;;100602.71;;;;106725;1285;28352;-30
2022/05/15 01:31:34;;;;;;;5.90;3.20;;;;;;100603.99;;;;106723;1285;28455;-31
2022/05/15 01:34:01;;;;;;;6.40;2.90;;;;;;100604.11;;;;106749;1285;27997;-30
2022/05/15 01:36:28;;;;;;;5.60;2.90;;;;;;100604.67;;;;106659;1285;28404;-30
2022/05/15 01:38:54;;;;;;;6.00;3.00;;;;;;100607.16;;;;106748;1285;28400;-30
2022/05/15 01:41:23;;;;;;;5.60;2.80;;;;;;100609.31;;;;106720;1285;30663;-30
2022/05/15 01:43:53;;;;;;;5.50;2.80;;;;;;100611.13;;;;106627;1287;27666;-30
2022/05/15 01:46:23;;;;;;;5.30;2.70;;;;;;100613.45;;;;106725;1285;29033;-31
2022/05/15 01:48:51;;;;;;;5.70;3.20;;;;;;100614.59;;;;106725;1285;28426;-31
2022/05/15 01:51:19;;;;;;;6.70;3.00;;;;;;100617.36;;;;106606;1285;30770;-30
2022/05/15 01:53:48;;;;;;;6.60;2.70;;;;;;100616.60;;;;106737;1285;29134;-30
2022/05/15 01:56:15;;;;;;;7.20;3.20;;;;;;100616.88;;;;106747;1285;27763;-30
2022/05/15 01:58:42;;;;;;;7.10;2.80;;;;;;100618.58;;;;106583;1285;28382;-30
2022/05/15 02:01:08;;;;;;;5.90;3.30;;;;;;100619.02;;;;106737;1285;28520;-30
2022/05/15 02:03:36;;;;;;;4.80;2.60;;;;;;100622.93;;;;106709;1285;27033;-31
2022/05/15 02:06:04;;;;;;;6.70;3.00;;;;;;100622.46;;;;106685;1285;28500;-31
2022/05/15 02:08:33;;;;;;;5.80;2.70;;;;;;100624.78;;;;106757;1285;25868;-31
2022/05/15 02:11:02;;;;;;;6.00;3.40;;;;;;100624.23;;;;106587;1285;28114;-31
2022/05/15 02:13:29;;;;;;;5.40;2.40;;;;;;100623.73;;;;106716;1285;28407;-31
2022/05/15 02:15:56;;;;;;;5.00;2.70;;;;;;100620.80;;;;106757;1285;30762;-31
2022/05/15 02:18:23;;;;;;;4.90;2.70;;;;;;100621.47;;;;106749;1285;28394;-30
2022/05/15 02:20:50;;;;;;;6.40;2.90;;;;;;100627.23;;;;106715;1285;28393;-30
2022/05/15 02:23:17;;;;;;;5.30;2.90;;;;;;100626.85;;;;106732;1285;28488;-31
2022/05/15 02:25:43;;;;;;;4.80;2.70;;;;;;100625.57;;;;106736;1283;27338;-30
2022/05/15 02:28:10;;;;;;;5.50;2.70;;;;;;100624.14;;;;106711;1285;27463;-30
2022/05/15 02:30:37;;;;;;;8.10;2.60;;;;;;100626.60;;;;106539;1287;27951;-31
2022/05/15 02:33:05;;;;;;;5.60;2.70;;;;;;100628.72;;;;106712;1285;27388;-31
2022/05/15 02:35:32;;;;;;;5.30;2.40;;;;;;100629.66;;;;106702;1285;28965;-31
2022/05/15 02:37:59;;;;;;;5.10;2.60;;;;;;100630.57;;;;106721;1285;28530;-31
2022/05/15 02:40:26;;;;;;;5.40;3.30;;;;;;100630.87;;;;106731;1285;30625;-30
2022/05/15 02:42:55;;;;;;;5.30;2.90;;;;;;100635.16;;;;106585;1285;218941;-30
2022/05/15 02:45:23;;;;;;;4.80;2.30;;;;;;100638.66;;;;106759;1285;28409;-30
2022/05/15 02:47:50;;;;;;;4.60;2.40;;;;;;100634.85;;;;106770;1285;26745;-30
2022/05/15 02:53:05;;;;;;;4.80;2.50;;;;;;100630.77;;;;106766;1285;28234;-31
2022/05/15 02:55:33;;;;;;;5.00;2.50;;;;;;100633.27;;;;106624;1285;26091;-31
2022/05/15 02:57:59;;;;;;;4.70;2.30;;;;;;100635.69;;;;106750;1285;25781;-30
2022/05/15 03:00:28;;;;;;;6.40;2.70;;;;;;100640.02;;;;106789;1285;26586;-31
2022/05/15 03:02:55;;;;;;;5.30;2.80;;;;;;100639.39;;;;106797;1285;30496;-30
2022/05/15 03:05:22;;;;;;;6.50;2.60;;;;;;100639.34;;;;106787;1285;27798;-30
2022/05/15 03:07:49;;;;;;;5.80;2.30;;;;;;100640.33;;;;106759;1285;28384;-30
2022/05/15 03:10:19;;;;;;;5.20;2.40;;;;;;100641.52;;;;106680;1287;28397;-30
2022/05/15 03:12:46;;;;;;;5.20;2.20;;;;;;100640.32;;;;106709;1287;28454;-30
2022/05/15 03:15:14;;;;;;;4.80;2.20;;;;;;100642.77;;;;106672;1288;28036;-31
2022/05/15 03:17:43;;;;;;;4.50;2.20;;;;;;100645.14;;;;106772;1285;28414;-31
2022/05/15 03:20:13;;;;;;;4.70;2.40;;;;;;100641.31;;;;106792;1285;28405;-31
2022/05/15 03:22:40;;;;;;;5.70;2.40;;;;;;100647.15;;;;106769;1285;26190;-31
2022/05/15 03:25:09;;;;;;;5.00;2.30;;;;;;100649.77;;;;106805;1285;28455;-31
2022/05/15 03:27:36;;;;;;;5.90;2.50;;;;;;100651.03;;;;106775;1285;30542;-31
2022/05/15 03:30:05;;;;;;;5.50;2.30;;;;;;100648.06;;;;106834;1285;25983;-31
2022/05/15 03:32:33;;;;;;;5.60;2.10;;;;;;100649.25;;;;106775;1285;30576;-31
2022/05/15 03:34:59;;;;;;;4.80;2.00;;;;;;100651.18;;;;106761;1285;25844;-31
2022/05/15 03:37:26;;;;;;;5.80;2.60;;;;;;100654.50;;;;106742;1285;28391;-31
2022/05/15 03:39:54;;;;;;;5.20;2.30;;;;;;100652.09;;;;106743;1285;28385;-30
2022/05/15 03:42:21;;;;;;;4.90;2.30;;;;;;100652.40;;;;106771;1285;28405;-30
2022/05/15 03:44:48;;;;;;;4.70;2.30;;;;;;100659.88;;;;106749;1285;27877;-30
2022/05/15 03:47:14;;;;;;;4.90;2.30;;;;;;100664.33;;;;106772;1285;25862;-30
2022/05/15 03:49:41;;;;;;;4.40;2.10;;;;;;100666.17;;;;106768;1284;28564;-30
2022/05/15 03:52:08;;;;;;;4.30;2.30;;;;;;100668.03;;;;106732;1285;28432;-30
2022/05/15 03:54:35;;;;;;;4.70;2.10;;;;;;100671.63;;;;106743;1285;28458;-30
2022/05/15 03:57:02;;;;;;;4.50;2.20;;;;;;100673.61;;;;106566;1285;28322;-31
2022/05/15 03:59:36;;;;;;;4.30;2.10;;;;;;100675.86;;;;106600;1285;30466;-30
2022/05/15 04:02:05;;;;;;;5.20;2.10;;;;;;100676.22;;;;106792;1285;26763;-30
2022/05/15 04:04:33;;;;;;;4.20;2.00;;;;;;100677.51;;;;106759;1285;26623;-30
2022/05/15 04:07:01;;;;;;;5.10;2.10;;;;;;100680.20;;;;106780;1285;27190;-31
2022/05/15 04:09:31;;;;;;;4.90;2.40;;;;;;100683.77;;;;106757;1285;28408;-30
2022/05/15 04:11:58;;;;;;;4.70;2.20;;;;;;100687.89;;;;106786;1285;28871;-30
2022/05/15 04:14:25;;;;;;;3.90;1.90;;;;;;100686.98;;;;106771;1285;29183;-30
2022/05/15 04:16:52;;;;;;;5.90;1.90;;;;;;100691.27;;;;106745;1285;28548;-31
2022/05/15 04:19:19;;;;;;;4.40;2.20;;;;;;100695.75;;;;106757;1285;27616;-31
2022/05/15 04:21:45;;;;;;;6.50;2.60;;;;;;100699.70;;;;106554;1287;28472;-30
2022/05/15 04:24:15;;;;;;;5.30;2.40;;;;;;100703.08;;;;106780;1285;28470;-30
2022/05/15 04:26:44;;;;;;;6.10;2.30;;;;;;100702.61;;;;106739;1285;30727;-31
2022/05/15 04:29:10;;;;;;;4.30;2.00;;;;;;100703.23;;;;106761;1285;28474;-30
2022/05/15 04:31:37;;;;;;;5.30;2.20;;;;;;100703.60;;;;106749;1285;29605;-31
2022/05/15 04:34:05;;;;;;;4.30;2.00;;;;;;100707.86;;;;106806;1285;28423;-30
2022/05/15 04:36:34;;;;;;;5.40;2.10;;;;;;100703.77;;;;106785;1285;25745;-30
2022/05/15 04:39:02;;;;;;;5.40;2.50;;;;;;100706.98;;;;106781;1285;28531;-30
2022/05/15 04:41:29;;;;;;;5.80;2.00;;;;;;100702.64;;;;106794;1285;26291;-31
2022/05/15 04:43:56;;;;;;;4.60;1.80;;;;;;100707.93;;;;106777;1285;28893;-30
2022/05/15 04:46:25;;;;;;;4.30;2.10;;;;;;100707.77;;;;106589;1285;28421;-30
2022/05/15 04:48:52;;;;;;;4.20;2.10;;;;;;100709.18;;;;106790;1285;30812;-30
2022/05/15 04:51:19;;;;;;;4.80;2.30;;;;;;100710.74;;;;106606;1288;28399;-31
2022/05/15 04:53:46;;;;;;;5.20;2.00;;;;;;100710.21;;;;106767;1285;25929;-31
2022/05/15 04:56:13;;;;;;;4.70;2.00;;;;;;100710.21;;;;106737;1285;28421;-31
2022/05/15 04:58:39;;;;;;;6.20;2.20;;;;;;100710.82;;;;106588;1285;25964;-30
2022/05/15 05:01:06;;;;;;;4.90;2.10;;;;;;100711.01;;;;106768;1285;30198;-30
2022/05/15 05:03:32;;;;;;;4.20;1.80;;;;;;100710.31;;;;106755;1284;27976;-29
2022/05/15 05:05:59;;;;;;;4.70;1.90;;;;;;100710.77;;;;106796;1285;30699;-29
2022/05/15 05:08:26;;;;;;;4.50;2.20;;;;;;100716.86;;;;106792;1285;30646;-30
2022/05/15 05:10:52;;;;;;;5.50;2.10;;;;;;100714.06;;;;106480;1288;27838;-30
2022/05/15 05:13:19;;;;;;;4.90;2.00;;;;;;100718.05;;;;106777;1285;27672;-30
2022/05/15 05:15:45;;;;;;;5.70;2.20;;;;;;100723.11;;;;106738;1285;28391;-31
2022/05/15 05:18:19;;;;;;;4.10;1.60;;;;;;100721.08;;;;106762;1285;28518;-30
2022/05/15 05:20:46;;;;;;;4.20;1.70;;;;;;100724.02;;;;106813;1285;28368;-30
2022/05/15 05:23:13;;;;;;;4.20;1.90;;;;;;100724.48;;;;106573;1285;29141;-30
2022/05/15 05:25:41;;;;;;;4.80;2.00;;;;;;100727.50;;;;106845;1285;27589;-30
2022/05/15 05:28:08;;;;;;;4.50;1.80;;;;;;100728.31;;;;106803;1285;29227;-30
2022/05/15 05:30:37;;;;;;;4.00;1.70;;;;;;100729.21;;;;106810;1285;28473;-30
2022/05/15 05:33:05;;;;;;;4.60;1.90;;;;;;100724.05;;;;106819;1285;30788;-30
2022/05/15 05:35:33;;;;;;;5.00;1.90;;;;;;100728.05;;;;106803;1285;28504;-31
2022/05/15 05:38:00;;;;;;;4.50;1.80;;;;;;100728.54;;;;106805;1285;26056;-31
2022/05/15 05:40:27;;;;;;;4.40;1.60;;;;;;100731.73;;;;106552;1287;28482;-30
2022/05/15 05:42:54;;;;;;;4.20;1.60;;;;;;100733.32;;;;106805;1285;30595;-30
2022/05/15 05:45:21;;;;;;;4.40;1.70;;;;;;100727.56;;;;106792;1285;27048;-30
2022/05/15 05:47:49;;;;;;;5.10;1.70;;;;;;100733.10;;;;106776;1285;30804;-30
2022/05/15 05:50:21;;;;;;;5.20;1.90;;;;;;100728.77;;;;106794;1285;28528;-30
2022/05/15 05:52:48;;;;;;;4.60;1.90;;;;;;100725.36;;;;106800;1285;28768;-30
2022/05/15 05:55:17;;;;;;;4.10;1.70;;;;;;100722.60;;;;106799;1285;28405;-30
2022/05/15 05:57:45;;;;;;;4.80;1.90;;;;;;100722.13;;;;106766;1285;28457;-30
2022/05/15 06:00:18;;;;;;;4.30;1.90;;;;;;100724.60;;;;106743;1285;26201;-30
2022/05/15 06:02:45;;;;;;;4.00;1.40;;;;;;100729.05;;;;106801;1285;26715;-30
2022/05/15 06:05:13;;;;;;;4.50;1.60;;;;;;100729.11;;;;106807;1285;28545;-32
2022/05/15 06:07:39;;;;;;;3.60;1.60;;;;;;100732.41;;;;106785;1285;27393;-30
2022/05/15 06:10:11;;;;;;;4.40;1.50;;;;;;100735.52;;;;106778;1285;27958;-31
2022/05/15 06:12:40;;;;;;;4.00;1.50;;;;;;100733.89;;;;106784;1285;28391;-30
2022/05/15 06:15:10;;;;;;;4.00;1.50;;;;;;100735.69;;;;106777;1285;27791;-30
2022/05/15 06:17:37;;;;;;;4.00;1.70;;;;;;100735.73;;;;106769;1285;26623;-30
2022/05/15 06:20:08;;;;;;;4.20;1.40;;;;;;100733.60;;;;106811;1285;28325;-30
2022/05/15 06:22:35;;;;;;;3.30;1.50;;;;;;100739.22;;;;106795;1285;30592;-30
2022/05/15 06:25:02;;;;;;;3.90;1.50;;;;;;100741.05;;;;106577;1285;28520;-30
2022/05/15 06:27:29;;;;;;;4.40;1.30;;;;;;100747.77;;;;106806;1285;28226;-30
2022/05/15 06:29:58;;;;;;;4.30;1.40;;;;;;100748.94;;;;106721;1285;28562;-30
2022/05/15 06:32:26;;;;;;;3.00;1.40;;;;;;100750.37;;;;106800;1284;29680;-30
2022/05/15 06:34:53;;;;;;;3.00;1.30;;;;;;100746.98;;;;106788;1285;27654;-30
2022/05/15 06:37:20;;;;;;;2.90;1.20;;;;;;100748.91;;;;106779;1285;27888;-30
2022/05/15 06:39:46;;;;;;;3.50;1.30;;;;;;100753.64;;;;106777;1285;28519;-30
2022/05/15 06:42:14;;;;;;;3.80;1.10;;;;;;100755.37;;;;106792;1285;28582;-30
2022/05/15 06:44:41;;;;;;;3.30;1.10;;;;;;100751.58;;;;106813;1285;26399;-31
2022/05/15 06:47:08;;;;;;;3.40;1.30;;;;;;100752.61;;;;106805;1285;28494;-31
2022/05/15 06:49:35;;;;;;;3.90;1.40;;;;;;100754.08;;;;106765;1285;28385;-31
2022/05/15 06:52:02;;;;;;;3.20;1.40;;;;;;100750.70;;;;106762;1285;25937;-31
2022/05/15 06:54:29;;;;;;;3.60;1.30;;;;;;100752.32;;;;106629;1285;28295;-31
2022/05/15 06:59:41;;;;;;;3.90;1.30;;;;;;100758.91;;;;106818;1285;27237;-31
2022/05/15 07:02:08;;;;;;;3.70;1.20;;;;;;100762.42;;;;106805;1285;30316;-31
2022/05/15 07:04:35;;;;;;;4.20;1.30;;;;;;100762.80;;;;106794;1285;27566;-31
2022/05/15 07:07:02;;;;;;;5.00;1.30;;;;;;100762.69;;;;106736;1285;29822;-31
2022/05/15 07:09:29;;;;;;;2.90;1.10;;;;;;100764.07;;;;106803;1285;26276;-29
2022/05/15 07:11:56;;;;;;;3.60;1.20;;;;;;100766.16;;;;106819;1285;28184;-30
2022/05/15 07:14:23;;;;;;;4.30;1.30;;;;;;100762.81;;;;106824;1285;27870;-31
2022/05/15 07:16:50;;;;;;;3.50;1.10;;;;;;100766.14;;;;106711;1285;28406;-32
2022/05/15 07:19:16;;;;;;;3.80;1.20;;;;;;100772.23;;;;106812;1285;28997;-32
2022/05/15 07:21:43;;;;;;;3.40;1.20;;;;;;100768.33;;;;106786;1285;30693;-31
2022/05/15 07:24:10;;;;;;;3.90;1.20;;;;;;100770.97;;;;106858;1285;27679;-31
2022/05/15 07:26:42;;;;;;;3.90;1.30;;;;;;100770.72;;;;106826;1285;28417;-31
2022/05/15 07:29:09;;;;;;;3.00;1.00;;;;;;100771.48;;;;106800;1285;28450;-31
2022/05/15 07:31:35;;;;;;;3.80;1.40;;;;;;100771.48;;;;106805;1285;29235;-30
2022/05/15 07:34:03;;;;;;;3.50;1.30;;;;;;100771.76;;;;106580;1285;30676;-30
2022/05/15 07:36:29;;;;;;;3.50;1.10;;;;;;100775.89;;;;106801;1285;27271;-30
2022/05/15 07:38:56;;;;;;;4.40;1.10;;;;;;100777.65;;;;106780;1285;28431;-30
2022/05/15 07:41:23;;;;;;;3.50;1.10;;;;;;100781.08;;;;106802;1285;28391;-30
2022/05/15 07:43:49;;;;;;;2.70;1.00;;;;;;100784.73;;;;106718;1286;28478;-30
2022/05/15 07:46:16;;;;;;;3.40;1.00;;;;;;100785.80;;;;106790;1285;26113;-28
2022/05/15 07:48:43;;;;;;;5.30;1.20;;;;;;100787.39;;;;106547;1288;28178;-30
2022/05/15 07:51:10;;;;;;;3.10;1.00;;;;;;100788.73;;;;106674;1288;28436;-30
2022/05/15 07:53:40;;;;;;;3.60;1.10;;;;;;100790.50;;;;106764;1285;30757;-29
2022/05/15 07:56:10;;;;;;;3.60;1.20;;;;;;100791.19;;;;106820;1285;30941;-30
2022/05/15 07:58:37;;;;;;;4.80;1.20;;;;;;100783.66;;;;106779;1285;28370;-30
2022/05/15 08:01:05;;;;;;;3.80;1.00;;;;;;100789.09;;;;106778;1285;30585;-30
2022/05/15 08:03:37;;;;;;;3.70;0.80;;;;;;100790.19;;;;106813;1285;25806;-30
2022/05/15 08:08:52;;;;;;;5.30;1.20;;;;;;100792.26;;;;106790;1285;28662;-30
2022/05/15 08:11:18;;;;;;;3.90;1.10;;;;;;100795.82;;;;106563;1285;28549;-29
2022/05/15 08:13:45;;;;;;;4.20;0.90;;;;;;100794.82;;;;106803;1285;26071;-29
2022/05/15 08:16:12;;;;;;;4.30;1.00;;;;;;100796.20;;;;106793;1285;27839;-31
2022/05/15 08:24:09;;;;;;;2.90;0.90;;;;;;100799.83;;;;106462;1288;28462;-30
2022/05/15 08:26:37;;;;;;;3.50;1.10;;;;;;100800.98;;;;106471;1288;28393;-31
2022/05/15 08:29:04;;;;;;;3.10;0.90;;;;;;100800.55;;;;106642;1287;28277;-31
2022/05/15 08:31:30;;;;;;;4.30;1.30;;;;;;100802.46;;;;106479;1287;25972;-31
2022/05/15 08:33:57;;;;;;;2.90;1.00;;;;;;100802.10;;;;106355;1287;28456;-32
2022/05/15 08:36:24;;;;;;;2.90;1.00;;;;;;100803.95;;;;106664;1287;28420;-30
2022/05/15 08:38:51;;;;;;;4.10;0.90;;;;;;100804.39;;;;106686;1287;28388;-30
2022/05/15 08:41:34;;;;;;;3.20;1.20;;;;;;100800.45;;;;106558;1287;27903;-30
2022/05/15 08:44:30;;;;;;;4.10;0.90;;;;;;100807.22;;;;106445;1288;26396;-30
2022/05/15 08:47:36;;;;;;;3.60;1.30;;;;;;100807.66;;;;106684;1287;28493;-30
2022/05/15 08:50:18;;;;;;;3.60;1.20;;;;;;100808.73;;;;106558;1287;28449;-30
2022/05/15 08:53:02;;;;;;;3.10;1.10;;;;;;100809.08;;;;106700;1287;27433;-30
2022/05/15 08:55:42;;;;;;;2.60;0.80;;;;;;100808.08;;;;106694;1287;28488;-30
2022/05/15 08:58:35;;;;;;;4.20;1.10;;;;;;100810.91;;;;106695;1287;28391;-30
2022/05/15 09:01:08;;;;;;;3.70;1.10;;;;;;100815.84;;;;106407;1289;29693;-30
2022/05/15 09:03:40;;;;;;;3.10;1.20;;;;;;100812.45;;;;106492;1288;26296;-30
2022/05/15 09:06:38;;;;;;;4.50;1.10;;;;;;100809.29;;;;106522;1287;27963;-30
2022/05/15 09:09:27;;;;;;;4.00;1.50;;;;;;100815.08;;;;106694;1287;28705;-30
2022/05/15 09:12:14;;;;;;;4.30;1.40;;;;;;100825.59;;;;106469;1288;28558;-30
2022/05/15 09:15:04;;;;;;;4.00;1.50;;;;;;100821.14;;;;106738;1287;28577;-30
2022/05/15 09:17:50;;;;;;;4.50;1.10;;;;;;100816.77;;;;106668;1287;29008;-30
2022/05/15 09:20:49;;;;;;;4.30;1.30;;;;;;100814.81;;;;106516;1287;28462;-30
2022/05/15 09:23:26;;;;;;;4.00;1.20;;;;;;100824.55;;;;106717;1287;28110;-30
2022/05/15 09:26:00;;;;;;;3.50;1.20;;;;;;100824.23;;;;106730;1288;30818;-30
2022/05/15 09:28:29;;;;;;;2.60;1.00;;;;;;100823.26;;;;106690;1287;28547;-30
2022/05/15 09:30:59;;;;;;;3.70;1.30;;;;;;100817.39;;;;106749;1287;28493;-30
2022/05/15 09:33:50;;;;;;;4.10;1.10;;;;;;100824.02;;;;106389;1291;30692;-31
2022/05/15 09:36:35;;;;;;;2.90;1.10;;;;;;100830.27;;;;106667;1288;30613;-30
2022/05/15 09:39:22;;;;;;;4.00;1.10;;;;;;100825.86;;;;106686;1287;28327;-30
2022/05/15 09:44:57;;;;;;;6.70;1.40;;;;;;100831.02;;;;106543;1288;30451;-28
2022/05/15 09:47:38;;;;;;;4.10;0.90;;;;;;100835.44;;;;106680;1287;27180;-28
2022/05/15 09:50:30;;;;;;;3.20;1.20;;;;;;100835.45;;;;106488;1287;28491;-28
2022/05/15 09:52:57;;;;;;;4.20;1.10;;;;;;100833.12;;;;106571;1287;28406;-28
2022/05/15 09:55:30;;;;;;;3.80;1.10;;;;;;100831.52;;;;106554;1287;28596;-28
2022/05/15 09:58:06;;;;;;;3.90;1.30;;;;;;100835.42;;;;106682;1287;26128;-28
2022/05/15 10:00:36;;;;;;;3.70;1.10;;;;;;100841.61;;;;106455;1288;30807;-28
2022/05/15 10:03:25;;;;;;;4.10;1.10;;;;;;100839.63;;;;106412;1288;28310;-30
2022/05/15 10:06:01;;;;;;;2.70;1.10;;;;;;100837.77;;;;106443;1288;27691;-29
2022/05/15 10:08:30;;;;;;;3.20;1.00;;;;;;100835.24;;;;106708;1288;28493;-31
2022/05/15 10:11:07;;;;;;;5.40;1.20;;;;;;100833.59;;;;106531;1287;28574;-31
2022/05/15 10:13:45;;;;;;;2.60;1.00;;;;;;100835.11;;;;106680;1288;28254;-29
2022/05/15 10:16:18;;;;;;;3.00;1.10;;;;;;100841.61;;;;106417;1288;28571;-29
2022/05/15 10:19:02;;;;;;;3.10;1.20;;;;;;100835.41;;;;106716;1288;28332;-28
2022/05/15 10:21:38;;;;;;;;;;;;;;100832.41;;;;106487;1287;27422;-29
2022/05/15 10:24:11;;;;;;;2.20;0.90;;;;;;100835.40;;;;106630;1287;28465;-28
2022/05/15 10:26:58;;;;;;;5.40;1.20;;;;;;100827.27;;;;106649;1287;28445;-28
2022/05/15 10:29:38;;;;;;;6.60;1.70;;;;;;100828.89;;;;106769;1287;28324;-26
2022/05/15 10:32:22;;;;;;;4.50;1.30;;;;;;100833.19;;;;106650;1286;29120;-27
2022/05/15 10:34:49;;;;;;;5.70;1.40;;;;;;100830.71;;;;106599;1287;28971;-27
2022/05/15 10:37:41;;;;;;;4.90;1.60;;;;;;100832.83;;;;106485;1289;28419;-28
2022/05/15 10:40:29;;;;;;;6.50;1.70;;;;;;100828.95;;;;106605;1287;28402;-28
2022/05/15 10:43:28;;;;;;;7.70;1.70;;;;;;100826.70;;;;106611;1287;227343;-28
2022/05/15 10:46:14;;;;;;;6.30;1.40;;;;;;100830.04;;;;106639;1287;28348;-26
2022/05/15 10:49:10;;;;;;;4.30;1.30;;;;;;100829.97;;;;106762;1286;28153;-28
2022/05/15 10:51:58;;;;;;;4.30;1.20;;;;;;100826.23;;;;106641;1287;28579;-28
2022/05/15 10:58:07;;;;;;;4.90;1.70;;;;;;100827.95;;;;106749;1287;28433;-28
2022/05/15 11:00:43;;;;;;;5.70;1.60;;;;;;100830.44;;;;106766;1287;28635;-28
2022/05/15 11:03:41;;;;;;;5.00;1.60;;;;;;100825.56;;;;106637;1287;28599;-26
2022/05/15 11:06:39;;;;;;;4.30;1.30;;;;;;100824.20;;;;106771;1285;28492;-27
2022/05/15 11:09:23;;;;;;;5.20;1.30;;;;;;100823.30;;;;106761;1287;30618;-26
2022/05/15 11:12:26;;;;;;;5.70;1.50;;;;;;100822.02;;;;106624;1288;27802;-29
2022/05/15 11:15:18;;;;;;;4.30;1.30;;;;;;100812.77;;;;106825;1287;27471;-28
2022/05/15 11:18:21;;;;;;;3.90;1.40;;;;;;100813.56;;;;106763;1287;28677;-29
2022/05/15 11:21:01;;;;;;;4.00;1.40;;;;;;100815.55;;;;106644;1287;28786;-29
2022/05/15 11:23:50;;;;;;;4.00;1.20;;;;;;100811.40;;;;106662;1287;27402;-29
2022/05/15 11:26:20;;;;;;;4.30;1.30;;;;;;100808.33;;;;106780;1286;25780;-29
2022/05/15 11:28:54;;;;;;;4.90;1.50;;;;;;100811.63;;;;106675;1287;28318;-26
2022/05/15 11:31:28;;;;;;;4.80;1.30;;;;;;100817.71;;;;106629;1285;29371;-27
2022/05/15 11:34:02;;;;;;;4.90;1.40;;;;;;100812.63;;;;106418;1288;32163;-27
2022/05/15 11:36:35;;;;;;;3.60;1.40;;;;;;100806.46;;;;106485;1287;30202;-27
2022/05/15 11:39:15;;;;;;;4.20;1.30;;;;;;100794.56;;;;106696;1287;28339;-27
2022/05/15 11:41:44;;;;;;;3.70;1.10;;;;;;100790.96;;;;106462;1287;27720;-27
2022/05/15 11:44:23;;;;;;;4.20;1.40;;;;;;100796.30;;;;106433;1287;28459;-27
2022/05/15 11:46:51;;;;;;;4.20;1.20;;;;;;100793.27;;;;106417;1287;26296;-27
2022/05/15 11:49:40;;;;;;;3.80;1.30;;;;;;100791.95;;;;106479;1287;27623;-27
2022/05/15 11:52:08;;;;;;;5.50;1.20;;;;;;100788.45;;;;106620;1287;28405;-28
2022/05/15 11:54:41;;;;;;;4.00;1.20;;;;;;100794.52;;;;106495;1287;28450;-28
2022/05/15 11:57:13;;;;;;;4.00;1.40;;;;;;100793.66;;;;106559;1286;28470;-28
2022/05/15 11:59:54;;;;;;;4.70;1.10;;;;;;100788.57;;;;106344;1288;28587;-28
2022/05/15 12:02:20;;;;;;;4.40;1.20;;;;;;100791.45;;;;106642;1287;28507;-28
2022/05/15 12:05:36;;;;;;;3.30;0.80;;;;;;100791.98;;;;106452;1287;28488;-27
2022/05/15 12:08:16;;;;;;;4.50;1.20;;;;;;100789.30;;;;106651;1287;28493;-28
2022/05/15 12:10:43;;;;;;;3.20;1.10;;;;;;100794.05;;;;106403;1291;29793;-27
2022/05/15 12:13:42;;;;;;;2.70;0.90;;;;;;100792.73;;;;106403;1287;28452;-27
2022/05/15 12:16:19;;;;;;;3.10;1.00;;;;;;100792.79;;;;106404;1287;26373;-28
2022/05/15 12:19:05;;;;;;;3.70;1.40;;;;;;100791.38;;;;106433;1287;27936;-28
2022/05/15 12:21:48;;;;;;;3.80;0.90;;;;;;100791.16;;;;106502;1287;27198;-28
2022/05/15 12:24:27;;;;;;;3.60;1.10;;;;;;100787.13;;;;106485;1287;30800;-28
2022/05/15 12:27:08;;;;;;;4.40;1.20;;;;;;100787.38;;;;106642;1287;27854;-28
2022/05/15 12:29:56;;;;;;;3.10;0.80;;;;;;100780.96;;;;106645;1287;30628;-28
2022/05/15 12:32:36;;;;;;;3.70;1.00;;;;;;100777.38;;;;106632;1287;30190;-28
2022/05/15 12:35:10;;;;;;;4.10;1.10;;;;;;100777.28;;;;106643;1287;28488;-28
2022/05/15 12:38:09;;;;;;;3.30;0.90;;;;;;100778.20;;;;106651;1287;28610;-28
2022/05/15 12:40:40;;;;;;;2.70;1.20;;;;;;100776.95;;;;106383;1290;28911;-28
2022/05/15 12:43:26;;;;;;;5.40;1.10;;;;;;100773.02;;;;106467;1287;28657;-28
2022/05/15 12:45:54;;;;;;;3.60;1.20;;;;;;100772.31;;;;106423;1286;28109;-29
2022/05/15 12:48:22;;;;;;;2.70;0.80;;;;;;100770.94;;;;106571;1287;28586;-27
2022/05/15 12:50:51;;;;;;;3.30;0.90;;;;;;100768.59;;;;106418;1287;28226;-28
2022/05/15 12:53:28;;;;;;;3.20;1.10;;;;;;100763.41;;;;106656;1287;27726;-28
2022/05/15 12:56:30;;;;;;;4.10;1.00;;;;;;100766.75;;;;106584;1287;28694;-28
2022/05/15 12:59:21;;;;;;;3.80;1.00;;;;;;100769.07;;;;106624;1287;28727;-28
2022/05/15 13:01:48;;;;;;;3.30;0.90;;;;;;100768.38;;;;106445;1287;26163;-28
2022/05/15 13:04:23;;;;;;;2.80;0.80;;;;;;100758.01;;;;106623;1287;28204;-28
2022/05/15 13:06:57;;;;;;;2.90;0.90;;;;;;100754.52;;;;106445;1287;29816;-28
2022/05/15 13:09:26;;;;;;;;;;;;;;100756.59;;;;106603;1287;28706;-28
2022/05/15 13:11:57;;;;;;;3.30;1.10;;;;;;100755.38;;;;106396;1287;30497;-29
2022/05/15 13:14:35;;;;;;;4.40;0.90;;;;;;100753.58;;;;106599;1287;27376;-28
2022/05/15 13:17:04;;;;;;;3.20;1.00;;;;;;100749.30;;;;106511;1287;28783;-28
2022/05/15 13:19:37;;;;;;;3.60;1.20;;;;;;100745.08;;;;106604;1287;28724;-28
2022/05/15 13:22:04;;;;;;;;;;;;;;100749.33;;;;106341;1288;27932;-28
2022/05/15 13:24:34;;;;;;;5.90;1.10;;;;;;100753.14;;;;106348;1289;31017;-28
2022/05/15 13:27:03;;;;;;;3.40;1.10;;;;;;100751.52;;;;106445;1288;28806;-29
2022/05/15 13:29:32;;;;;;;4.40;1.30;;;;;;100750.37;;;;106456;1288;28413;-30
2022/05/15 13:31:58;;;;;;;5.00;1.30;;;;;;100750.60;;;;106478;1288;28241;-30
2022/05/15 13:34:28;;;;;;;3.90;1.10;;;;;;100750.19;;;;106425;1288;29040;-29
2022/05/15 13:37:07;;;;;;;3.60;1.30;;;;;;100745.09;;;;106395;1288;26079;-30